Gales Ferry, Connecticut
Current Conditions -  °F | °C
As of 4:56 AM on Tuesday 21 Oct 2014 (Local Time) from KGON Reporting Station
Few Clouds Few Clouds  
Wind Chill: 46°   Ceiling: Unl
Heat Index: 48°   Visibility: 10mi
Dew Point: 48°   Wind: 5mph
Humidity: 100%   Direction: 350°N
Pressure: 29.93"   Gusts: NA
Location:  41.43°N, 72.08°W
Report Text: KGON 210856Z AUTO 35004KT 10SM FEW055 09/09 A2993 RMK AO2 SLP136 60000 T00890089 56014
Loading
Personal Weather Stations






























Interactive Weather Map
Tropical Storm Tracking
New forecast layout! Learn more

10-Day Weather Forecast

Advertisements
Track Severe Weather on mobile